Time;durP1;ratioP1;P1;durP2;ratioP2;P2;SDS_P1;SDS_P2;PMS_P1;PMS_P2;Temp;Humidity;BMP_temperature;BMP_pressure;BME280_temperature;BME280_humidity;BME280_pressure;Samples;Min_cycle;Max_cycle;Signal;HPM_P1;HPM_P2
2023/07/26 00:02:13;;;;;;;2.33;1.30;;;19.30;90.80;;;;;;5056666;28;20455;-81
2023/07/26 00:04:39;;;;;;;2.83;1.38;;;19.30;90.80;;;;;;5057144;28;20033;-80
2023/07/26 00:07:05;;;;;;;2.60;1.30;;;19.30;90.80;;;;;;5059118;28;20047;-80
2023/07/26 00:09:31;;;;;;;2.05;1.13;;;19.30;90.80;;;;;;5056648;28;20372;-80
2023/07/26 00:11:56;;;;;;;2.78;1.40;;;19.30;90.90;;;;;;5061042;28;20442;-80
2023/07/26 00:14:22;;;;;;;1.80;1.30;;;19.20;90.90;;;;;;5035788;28;20041;-82
2023/07/26 00:16:49;;;;;;;2.40;1.30;;;19.30;90.90;;;;;;5054432;28;20292;-80
2023/07/26 00:19:16;;;;;;;3.40;1.40;;;19.30;90.90;;;;;;5041929;28;20461;-82
2023/07/26 00:21:42;;;;;;;1.67;1.10;;;19.20;90.80;;;;;;5056970;28;20033;-80
2023/07/26 00:24:07;;;;;;;2.00;1.30;;;19.10;90.80;;;;;;5033309;28;20488;-80
2023/07/26 00:26:34;;;;;;;2.30;1.38;;;19.10;90.80;;;;;;5048682;28;20024;-80
2023/07/26 00:29:00;;;;;;;2.67;1.37;;;19.10;90.80;;;;;;5057718;28;20024;-81
2023/07/26 00:31:26;;;;;;;1.60;1.30;;;19.10;90.80;;;;;;5057226;28;20385;-80
2023/07/26 00:33:51;;;;;;;2.80;1.10;;;19.00;90.70;;;;;;5040388;28;20036;-81
2023/07/26 00:36:17;;;;;;;1.80;1.30;;;18.90;90.70;;;;;;5053839;28;20294;-81
2023/07/26 00:38:43;;;;;;;1.45;1.30;;;18.90;90.70;;;;;;5057559;28;20523;-80
2023/07/26 00:41:08;;;;;;;2.60;1.20;;;18.80;90.70;;;;;;5045484;28;20044;-79
2023/07/26 00:43:34;;;;;;;1.65;1.20;;;18.70;90.70;;;;;;5052108;28;20212;-82
2023/07/26 00:46:00;;;;;;;2.50;1.40;;;18.70;90.80;;;;;;5058409;28;20021;-81
2023/07/26 00:48:26;;;;;;;2.60;1.40;;;18.60;90.80;;;;;;5055595;28;20256;-82
2023/07/26 00:50:53;;;;;;;1.80;1.30;;;18.50;90.80;;;;;;5053364;28;20042;-80
2023/07/26 00:53:19;;;;;;;2.40;1.40;;;18.50;90.80;;;;;;5060142;28;20016;-81
2023/07/26 00:55:45;;;;;;;2.35;1.50;;;18.40;91.00;;;;;;5048611;28;20055;-81
2023/07/26 00:58:12;;;;;;;1.73;1.27;;;18.40;91.00;;;;;;5050791;28;20568;-81
2023/07/26 01:00:41;;;;;;;1.52;1.30;;;18.30;91.00;;;;;;5046919;28;20028;-80
2023/07/26 01:03:07;;;;;;;2.97;1.40;;;18.30;90.90;;;;;;5043564;28;20052;-80
2023/07/26 01:05:42;;;;;;;2.75;1.30;;;18.20;91.10;;;;;;5032949;28;20527;-79
2023/07/26 01:08:40;;;;;;;1.88;1.23;;;18.10;90.80;;;;;;5047998;28;20060;-80
2023/07/26 01:11:42;;;;;;;2.10;1.30;;;18.10;90.40;;;;;;5053931;28;20488;-80
2023/07/26 01:14:11;;;;;;;1.98;1.45;;;18.00;90.90;;;;;;5074872;28;20115;-80
2023/07/26 01:16:37;;;;;;;1.27;1.07;;;18.00;91.10;;;;;;5058268;28;20032;-80
2023/07/26 01:19:03;;;;;;;1.55;1.30;;;18.00;91.30;;;;;;5059592;28;20426;-80
2023/07/26 01:21:33;;;;;;;2.10;1.13;;;17.90;91.30;;;;;;5056702;28;20093;-81
2023/07/26 01:23:59;;;;;;;2.47;1.20;;;17.90;91.10;;;;;;5063867;28;20017;-79
2023/07/26 01:26:25;;;;;;;1.60;1.20;;;17.80;91.40;;;;;;5054072;28;20082;-82
2023/07/26 01:28:50;;;;;;;2.70;1.30;;;17.80;91.50;;;;;;5052809;28;20031;-79
2023/07/26 01:31:18;;;;;;;1.73;1.40;;;17.70;91.40;;;;;;5046233;28;20487;-81
2023/07/26 01:33:48;;;;;;;2.75;1.30;;;17.70;91.40;;;;;;5056568;28;20546;-79
2023/07/26 01:36:15;;;;;;;1.60;1.30;;;17.70;91.50;;;;;;5064160;28;20032;-81
2023/07/26 01:38:43;;;;;;;1.95;1.40;;;17.60;91.50;;;;;;5057719;28;20032;-79
2023/07/26 01:41:09;;;;;;;2.05;1.60;;;17.60;91.50;;;;;;5039960;28;20032;-80
2023/07/26 01:43:36;;;;;;;3.03;1.50;;;17.50;91.50;;;;;;5046387;28;20339;-80
2023/07/26 01:46:02;;;;;;;2.17;1.40;;;17.50;91.50;;;;;;5064477;28;20028;-80
2023/07/26 01:48:28;;;;;;;2.33;1.30;;;17.40;91.60;;;;;;5054057;28;20069;-81
2023/07/26 01:50:53;;;;;;;2.22;1.45;;;17.40;91.60;;;;;;5056398;28;21028;-80
2023/07/26 01:53:19;;;;;;;1.83;1.30;;;17.30;91.70;;;;;;5056571;28;20404;-80
2023/07/26 01:55:45;;;;;;;2.00;1.40;;;17.30;91.70;;;;;;5061711;28;20115;-80
2023/07/26 01:58:11;;;;;;;3.03;1.40;;;17.20;91.70;;;;;;5051595;28;20060;-81
2023/07/26 02:00:36;;;;;;;2.50;1.35;;;17.20;91.80;;;;;;5054701;28;20214;-80
2023/07/26 02:03:02;;;;;;;1.90;1.23;;;17.10;91.80;;;;;;5058227;28;20056;-80
2023/07/26 02:05:28;;;;;;;2.33;1.30;;;17.10;91.80;;;;;;5040972;28;20404;-80
2023/07/26 02:07:54;;;;;;;1.70;1.30;;;17.00;91.90;;;;;;5046570;28;20032;-80
2023/07/26 02:10:20;;;;;;;2.10;1.30;;;16.90;92.30;;;;;;5058503;28;20044;-81
2023/07/26 02:12:46;;;;;;;2.42;1.40;;;16.90;92.00;;;;;;5031687;28;20356;-80
2023/07/26 02:15:11;;;;;;;2.53;1.50;;;16.90;92.10;;;;;;5055156;28;20744;-82
2023/07/26 02:17:37;;;;;;;2.60;1.38;;;16.80;92.00;;;;;;5042434;28;20131;-80
2023/07/26 02:20:04;;;;;;;2.77;1.63;;;16.80;92.10;;;;;;5044067;28;20063;-79
2023/07/26 02:22:30;;;;;;;3.05;1.48;;;16.70;92.20;;;;;;5037736;28;20400;-80
2023/07/26 02:24:55;;;;;;;1.83;1.38;;;16.60;92.20;;;;;;5058296;28;20040;-80
2023/07/26 02:27:21;;;;;;;3.47;1.47;;;16.60;92.30;;;;;;5057068;28;20023;-80
2023/07/26 02:29:47;;;;;;;1.97;1.40;;;16.60;92.30;;;;;;5044063;28;20659;-80
2023/07/26 02:32:12;;;;;;;2.70;1.50;;;16.50;92.30;;;;;;5044643;28;20268;-81
2023/07/26 02:34:38;;;;;;;1.95;1.40;;;16.50;92.40;;;;;;5040722;28;20319;-79
2023/07/26 02:37:04;;;;;;;2.00;1.53;;;16.50;92.40;;;;;;5040374;28;20019;-80
2023/07/26 02:39:30;;;;;;;3.38;1.50;;;16.50;92.50;;;;;;5056887;28;20032;-80
2023/07/26 02:41:55;;;;;;;2.22;1.50;;;16.40;92.50;;;;;;5063008;28;20032;-80
2023/07/26 02:44:21;;;;;;;1.60;1.37;;;16.40;92.50;;;;;;5052833;28;20012;-81
2023/07/26 02:46:47;;;;;;;2.13;1.50;;;16.30;92.50;;;;;;5028531;28;20424;-79
2023/07/26 02:49:13;;;;;;;1.80;1.37;;;16.30;92.60;;;;;;5063344;28;20020;-81
2023/07/26 02:51:39;;;;;;;2.55;1.50;;;16.30;92.60;;;;;;5055424;28;20036;-80
2023/07/26 02:54:05;;;;;;;2.53;1.50;;;16.20;92.70;;;;;;5059101;28;20036;-80
2023/07/26 02:56:30;;;;;;;2.50;1.50;;;16.20;92.70;;;;;;5034822;28;20036;-79
2023/07/26 02:58:56;;;;;;;2.80;1.60;;;16.20;92.80;;;;;;5061600;28;20040;-80
2023/07/26 03:01:22;;;;;;;2.53;1.70;;;16.10;92.80;;;;;;5044099;28;20020;-82
2023/07/26 03:03:47;;;;;;;2.42;1.60;;;16.10;92.80;;;;;;5059699;28;20024;-80
2023/07/26 03:06:13;;;;;;;3.07;1.80;;;16.10;92.90;;;;;;5039055;28;20024;-81
2023/07/26 03:08:39;;;;;;;2.27;1.57;;;16.00;92.90;;;;;;5055339;28;20226;-79
2023/07/26 03:11:05;;;;;;;2.28;1.55;;;16.00;92.90;;;;;;5037865;28;20294;-80
2023/07/26 03:13:30;;;;;;;3.53;1.52;;;16.00;93.00;;;;;;5052451;28;20393;-81
2023/07/26 03:15:56;;;;;;;2.63;1.80;;;16.00;93.00;;;;;;5058847;28;20029;-80
2023/07/26 03:18:22;;;;;;;2.03;1.55;;;15.90;93.00;;;;;;5055878;28;20039;-80
2023/07/26 03:20:48;;;;;;;2.77;1.53;;;15.90;93.10;;;;;;5054887;28;20029;-82
2023/07/26 03:23:14;;;;;;;3.38;1.65;;;15.90;93.20;;;;;;5057906;28;20107;-80
2023/07/26 03:25:41;;;;;;;2.10;1.60;;;15.90;93.30;;;;;;5063143;28;20150;-81
2023/07/26 03:28:07;;;;;;;2.23;1.70;;;15.80;93.30;;;;;;5039770;28;20017;-80
2023/07/26 03:30:33;;;;;;;2.10;1.55;;;15.90;93.40;;;;;;5053147;28;20036;-81
2023/07/26 03:32:58;;;;;;;2.80;1.60;;;15.80;93.40;;;;;;5036132;28;20424;-80
2023/07/26 03:35:24;;;;;;;3.30;1.83;;;15.80;93.50;;;;;;5042667;28;20366;-80
2023/07/26 03:37:50;;;;;;;2.05;1.55;;;15.80;93.50;;;;;;5056837;28;20037;-80
2023/07/26 03:40:16;;;;;;;2.70;2.00;;;15.80;93.60;;;;;;5060877;28;20028;-80
2023/07/26 03:42:42;;;;;;;2.67;1.90;;;15.80;93.50;;;;;;5062188;28;20016;-81
2023/07/26 03:45:07;;;;;;;2.57;1.70;;;15.70;93.50;;;;;;5052695;28;20083;-80
2023/07/26 03:47:33;;;;;;;2.75;1.70;;;15.70;93.60;;;;;;5045524;28;20115;-81
2023/07/26 03:50:01;;;;;;;3.38;1.90;;;15.70;93.60;;;;;;5051547;28;20090;-80
2023/07/26 03:52:27;;;;;;;3.20;1.83;;;15.70;93.70;;;;;;5053998;28;20029;-81
2023/07/26 03:54:54;;;;;;;2.97;1.83;;;15.60;93.70;;;;;;5051431;28;20034;-80
2023/07/26 03:57:20;;;;;;;4.43;2.00;;;15.60;93.70;;;;;;5057713;28;20078;-80
2023/07/26 03:59:45;;;;;;;2.70;1.92;;;15.60;93.80;;;;;;5050977;28;21681;-81
2023/07/26 04:02:11;;;;;;;2.90;1.80;;;15.60;93.90;;;;;;5045543;28;20044;-80
2023/07/26 04:04:37;;;;;;;2.38;1.73;;;15.60;93.90;;;;;;5053604;28;20067;-81
2023/07/26 04:07:03;;;;;;;4.17;1.80;;;15.60;94.00;;;;;;5053492;28;20694;-81
2023/07/26 04:09:29;;;;;;;3.08;2.00;;;15.60;94.10;;;;;;5058580;28;20108;-80
2023/07/26 04:11:58;;;;;;;3.73;1.93;;;15.60;94.20;;;;;;5059954;28;20045;-80
2023/07/26 04:14:24;;;;;;;3.43;2.00;;;15.50;94.20;;;;;;5056183;28;20287;-80
2023/07/26 04:16:51;;;;;;;2.92;2.00;;;15.50;94.30;;;;;;5048134;28;20101;-81
2023/07/26 04:19:17;;;;;;;2.95;1.77;;;15.50;94.30;;;;;;5054311;28;20097;-80
2023/07/26 04:21:42;;;;;;;3.77;1.90;;;15.50;94.40;;;;;;5026143;28;20142;-82
2023/07/26 04:24:08;;;;;;;3.55;2.00;;;15.50;94.50;;;;;;5053371;28;20403;-80
2023/07/26 04:26:34;;;;;;;4.78;1.80;;;15.50;94.60;;;;;;5060153;28;20602;-81
2023/07/26 04:29:00;;;;;;;3.40;2.07;;;15.50;94.70;;;;;;5054366;28;20171;-80
2023/07/26 04:31:26;;;;;;;3.20;2.00;;;15.50;94.70;;;;;;5059939;28;20257;-80
2023/07/26 04:33:51;;;;;;;2.80;2.10;;;15.50;94.80;;;;;;5045214;28;20595;-80
2023/07/26 04:36:17;;;;;;;3.47;1.95;;;15.60;94.90;;;;;;5057808;28;20075;-81
2023/07/26 04:38:43;;;;;;;3.20;2.00;;;15.60;94.90;;;;;;5060442;28;20036;-82
2023/07/26 04:41:08;;;;;;;3.00;2.10;;;15.60;95.00;;;;;;5055147;28;20428;-81
2023/07/26 04:43:34;;;;;;;4.57;2.23;;;15.50;95.00;;;;;;5064743;28;20029;-80
2023/07/26 04:46:00;;;;;;;2.90;1.90;;;15.60;95.20;;;;;;5039392;28;20301;-80
2023/07/26 04:48:26;;;;;;;7.15;2.03;;;15.60;95.30;;;;;;5049298;28;20112;-82
2023/07/26 04:50:52;;;;;;;3.10;2.07;;;15.60;95.50;;;;;;5053569;28;20644;-81
2023/07/26 04:53:18;;;;;;;3.60;2.20;;;15.70;95.70;;;;;;5060463;28;20037;-81
2023/07/26 04:55:48;;;;;;;3.10;1.92;;;15.70;95.90;;;;;;5033918;28;20943;-81
2023/07/26 04:58:14;;;;;;;3.33;2.10;;;15.80;96.10;;;;;;5060286;28;20550;-81
2023/07/26 05:00:41;;;;;;;3.50;2.20;;;15.90;96.30;;;;;;5041075;28;20024;-81
2023/07/26 05:03:07;;;;;;;3.72;2.10;;;15.90;96.50;;;;;;5050369;28;20322;-80
2023/07/26 05:05:34;;;;;;;4.17;2.13;;;16.00;96.50;;;;;;5053728;28;20344;-82
2023/07/26 05:08:01;;;;;;;4.70;2.17;;;16.00;96.60;;;;;;5066271;28;20032;-82
2023/07/26 05:10:26;;;;;;;4.13;2.17;;;16.10;96.60;;;;;;5038427;28;20068;-82
2023/07/26 05:12:53;;;;;;;4.70;2.40;;;16.20;96.60;;;;;;5060197;28;20153;-80
2023/07/26 05:15:19;;;;;;;3.30;2.22;;;16.20;96.50;;;;;;5061977;28;20041;-81
2023/07/26 05:17:45;;;;;;;4.13;2.13;;;16.30;96.40;;;;;;5042857;28;20085;-81
2023/07/26 05:20:11;;;;;;;3.03;2.13;;;16.30;96.40;;;;;;5056993;28;20040;-81
2023/07/26 05:22:37;;;;;;;4.07;2.10;;;16.30;96.30;;;;;;5058305;28;20032;-81
2023/07/26 05:25:03;;;;;;;4.47;2.33;;;16.40;96.30;;;;;;5059495;28;20042;-81
2023/07/26 05:27:29;;;;;;;4.57;2.45;;;16.40;96.30;;;;;;5061311;28;20107;-80
2023/07/26 05:29:57;;;;;;;4.87;2.33;;;16.40;96.40;;;;;;5066619;28;20112;-80
2023/07/26 05:32:26;;;;;;;4.18;2.60;;;16.40;96.40;;;;;;5061573;28;20035;-81
2023/07/26 05:34:57;;;;;;;4.43;2.40;;;16.40;96.50;;;;;;5053314;28;20118;-80
2023/07/26 05:37:24;;;;;;;4.13;2.30;;;16.40;96.50;;;;;;5056336;28;20031;-81
2023/07/26 05:39:51;;;;;;;4.43;2.10;;;16.40;96.60;;;;;;5060372;28;20044;-80
2023/07/26 05:42:18;;;;;;;3.55;2.35;;;16.40;96.60;;;;;;5037208;28;20028;-81
2023/07/26 05:44:44;;;;;;;3.65;2.38;;;16.40;96.70;;;;;;5055662;28;20021;-80
2023/07/26 05:47:11;;;;;;;4.95;2.50;;;16.40;96.80;;;;;;5060290;28;20476;-82
2023/07/26 05:49:40;;;;;;;5.57;2.70;;;16.50;96.80;;;;;;5056080;28;20017;-82
2023/07/26 05:52:06;;;;;;;3.53;2.23;;;16.50;96.90;;;;;;5058447;28;20039;-81
2023/07/26 05:54:32;;;;;;;3.65;2.42;;;16.50;96.90;;;;;;5060445;28;20666;-82
2023/07/26 05:56:58;;;;;;;5.95;2.78;;;16.50;97.00;;;;;;5051680;28;20032;-81
2023/07/26 05:59:24;;;;;;;3.60;2.20;;;16.60;97.10;;;;;;5060733;28;20059;-81
2023/07/26 06:01:49;;;;;;;3.92;2.30;;;16.60;97.10;;;;;;5057320;28;20045;-80
2023/07/26 06:04:15;;;;;;;4.87;2.70;;;16.60;97.20;;;;;;5057466;28;20036;-81
2023/07/26 06:06:41;;;;;;;3.58;2.47;;;16.60;97.30;;;;;;5049029;28;20032;-81
2023/07/26 06:09:07;;;;;;;5.30;2.58;;;16.70;97.40;;;;;;5052669;28;20089;-81
2023/07/26 06:11:34;;;;;;;3.70;2.53;;;16.70;97.60;;;;;;5052125;28;20032;-82
2023/07/26 06:14:00;;;;;;;4.72;2.70;;;16.80;97.80;;;;;;5055196;28;20051;-81
2023/07/26 06:16:26;;;;;;;5.65;2.83;;;16.90;98.00;;;;;;5061634;28;20037;-82
2023/07/26 06:18:52;;;;;;;4.60;2.70;;;16.90;98.20;;;;;;5060134;28;20025;-80
2023/07/26 06:21:19;;;;;;;3.80;2.73;;;17.00;98.30;;;;;;5032800;28;20035;-81
2023/07/26 06:23:45;;;;;;;6.43;2.85;;;17.10;98.40;;;;;;5052101;28;20025;-82
2023/07/26 06:26:11;;;;;;;6.97;2.90;;;17.20;98.50;;;;;;5057667;28;20453;-83
2023/07/26 06:28:37;;;;;;;4.80;2.77;;;17.30;98.80;;;;;;5055581;28;20040;-82
2023/07/26 06:31:03;;;;;;;6.13;3.10;;;17.30;98.50;;;;;;5064466;28;20291;-81
2023/07/26 06:33:29;;;;;;;5.00;2.97;;;17.40;98.50;;;;;;5060092;28;20054;-82
2023/07/26 06:35:55;;;;;;;5.00;2.70;;;17.50;98.50;;;;;;5065308;28;20197;-82
2023/07/26 06:38:21;;;;;;;4.33;2.37;;;17.60;98.60;;;;;;5042408;28;20278;-82
2023/07/26 06:40:48;;;;;;;5.82;2.95;;;17.60;98.60;;;;;;5055465;28;20320;-82
2023/07/26 06:43:13;;;;;;;5.35;2.75;;;17.70;98.60;;;;;;5053304;28;20036;-82
2023/07/26 06:45:47;;;;;;;5.15;2.70;;;17.70;98.70;;;;;;5055008;28;20047;-81
2023/07/26 06:48:13;;;;;;;4.10;2.57;;;17.80;98.70;;;;;;5057457;28;20550;-83
2023/07/26 06:50:43;;;;;;;4.30;2.88;;;17.90;99.00;;;;;;5058693;28;20028;-82
2023/07/26 06:53:09;;;;;;;3.70;2.55;;;18.00;99.00;;;;;;5047664;28;20021;-81
2023/07/26 06:55:36;;;;;;;5.07;2.80;;;18.10;99.20;;;;;;5055975;28;20024;-81
2023/07/26 06:58:02;;;;;;;4.28;2.60;;;18.20;99.20;;;;;;5032786;28;20021;-82
2023/07/26 07:00:28;;;;;;;4.83;2.50;;;18.30;99.40;;;;;;5057841;28;20029;-82
2023/07/26 07:02:58;;;;;;;5.20;2.72;;;18.50;99.50;;;;;;5061851;28;20044;-81
2023/07/26 07:05:26;;;;;;;5.07;2.50;;;18.60;99.40;;;;;;5034811;28;20776;-81
2023/07/26 07:07:51;;;;;;;4.07;2.47;;;18.80;99.50;;;;;;5056358;28;20020;-81
2023/07/26 07:10:17;;;;;;;5.25;2.92;;;18.80;99.60;;;;;;5038675;28;20082;-81
2023/07/26 07:12:43;;;;;;;4.03;2.38;;;19.00;99.60;;;;;;5046129;28;20162;-81
2023/07/26 07:15:09;;;;;;;4.60;2.47;;;19.10;99.60;;;;;;5053415;28;20454;-81
2023/07/26 07:17:35;;;;;;;3.78;2.30;;;19.20;99.60;;;;;;5055140;28;20085;-81
2023/07/26 07:20:01;;;;;;;3.97;2.43;;;19.30;99.70;;;;;;5043221;28;20026;-81
2023/07/26 07:22:27;;;;;;;4.18;2.40;;;19.50;99.70;;;;;;5048118;28;20393;-82
2023/07/26 07:24:53;;;;;;;5.70;2.60;;;19.60;99.50;;;;;;5036551;28;20036;-82
2023/07/26 07:27:21;;;;;;;3.90;2.28;;;19.70;99.20;;;;;;5061025;28;20498;-82
2023/07/26 07:29:46;;;;;;;5.00;2.63;;;19.70;98.70;;;;;;5036731;28;20742;-80
2023/07/26 07:32:12;;;;;;;6.50;2.70;;;19.80;99.00;;;;;;5062527;28;20024;-81
2023/07/26 07:34:38;;;;;;;3.53;2.20;;;19.80;99.00;;;;;;5043243;28;20447;-81
2023/07/26 07:37:05;;;;;;;5.40;2.63;;;19.90;99.20;;;;;;5047036;28;20029;-81
2023/07/26 07:39:32;;;;;;;3.40;2.30;;;20.00;99.20;;;;;;5061825;28;20040;-83
2023/07/26 07:41:58;;;;;;;3.97;2.27;;;20.10;98.90;;;;;;5056231;28;20424;-80
2023/07/26 07:44:26;;;;;;;3.88;2.30;;;20.20;99.00;;;;;;5058276;28;20051;-81
2023/07/26 07:46:51;;;;;;;4.30;2.30;;;20.30;99.00;;;;;;5060513;28;20312;-79
2023/07/26 07:49:17;;;;;;;4.17;2.40;;;20.40;99.10;;;;;;5055800;28;20054;-81
2023/07/26 07:51:43;;;;;;;3.92;2.03;;;20.50;99.10;;;;;;5046968;28;20162;-79
2023/07/26 07:54:08;;;;;;;3.83;2.20;;;20.50;99.00;;;;;;5057065;28;20108;-83
2023/07/26 07:56:34;;;;;;;3.87;2.10;;;20.70;99.00;;;;;;5071858;28;20027;-81
2023/07/26 07:59:00;;;;;;;3.00;1.90;;;20.80;99.50;;;;;;5048128;28;20064;-82
2023/07/26 08:01:26;;;;;;;2.73;2.00;;;21.00;99.90;;;;;;5064090;28;20415;-83
2023/07/26 08:03:51;;;;;;;3.13;1.98;;;21.20;99.90;;;;;;5063244;28;20059;-83
2023/07/26 08:06:19;;;;;;;3.27;2.00;;;21.40;99.90;;;;;;5059489;28;20020;-81
2023/07/26 08:08:44;;;;;;;2.95;1.67;;;21.60;99.90;;;;;;5029082;28;20516;-81
2023/07/26 08:11:10;;;;;;;3.35;2.10;;;21.80;99.90;;;;;;5062333;28;20221;-81
2023/07/26 08:13:36;;;;;;;3.67;2.00;;;22.00;99.90;;;;;;5037098;28;20052;-83
2023/07/26 08:16:02;;;;;;;4.07;2.10;;;22.20;99.90;;;;;;5050500;28;20024;-81
2023/07/26 08:18:28;;;;;;;2.90;1.73;;;22.50;99.90;;;;;;5057953;28;20040;-83
2023/07/26 08:20:54;;;;;;;3.60;1.98;;;22.80;99.90;;;;;;5057640;28;20037;-84
2023/07/26 08:23:19;;;;;;;3.65;2.10;;;23.10;99.90;;;;;;5020074;28;20037;-82
2023/07/26 08:25:45;;;;;;;2.60;1.70;;;23.40;99.90;;;;;;5051789;28;20614;-83
2023/07/26 08:28:11;;;;;;;2.70;2.08;;;23.70;99.90;;;;;;5050723;28;20023;-84
2023/07/26 08:30:37;;;;;;;3.30;2.00;;;24.00;99.90;;;;;;5054599;28;20368;-85
2023/07/26 08:33:03;;;;;;;3.40;1.70;;;24.20;99.20;;;;;;5047850;28;20024;-83
2023/07/26 08:35:29;;;;;;;3.90;2.03;;;24.40;99.30;;;;;;5057394;28;20823;-83
2023/07/26 08:37:56;;;;;;;3.75;2.17;;;24.70;99.60;;;;;;5048964;28;20040;-82
2023/07/26 08:40:22;;;;;;;3.53;2.00;;;25.10;99.90;;;;;;5051312;28;20520;-84
2023/07/26 08:42:48;;;;;;;3.60;2.17;;;25.40;98.90;;;;;;5036378;28;20028;-81
2023/07/26 08:45:15;;;;;;;3.70;2.00;;;25.60;97.90;;;;;;5061025;28;20056;-82
2023/07/26 08:47:42;;;;;;;2.95;2.10;;;25.80;97.70;;;;;;5052336;28;20024;-84
2023/07/26 08:50:08;;;;;;;4.10;2.60;;;26.00;98.10;;;;;;5056524;28;20133;-83
2023/07/26 08:52:34;;;;;;;3.30;2.35;;;26.30;98.50;;;;;;5063530;28;20028;-83
2023/07/26 08:55:00;;;;;;;3.90;2.70;;;26.70;98.90;;;;;;5039192;28;20021;-83
2023/07/26 08:57:27;;;;;;;8.88;6.57;;;27.00;98.20;;;;;;5051604;28;20054;-84
2023/07/26 08:59:53;;;;;;;5.30;3.92;;;27.30;96.50;;;;;;5038717;28;20025;-83
2023/07/26 09:02:20;;;;;;;5.00;3.40;;;27.50;96.40;;;;;;5054074;28;20055;-84
2023/07/26 09:04:47;;;;;;;3.80;2.75;;;27.60;96.00;;;;;;5047596;28;20115;-83
2023/07/26 09:07:14;;;;;;;3.92;2.28;;;27.80;95.80;;;;;;5053361;28;20086;-84
2023/07/26 09:09:40;;;;;;;3.92;2.10;;;27.90;94.30;;;;;;5038218;28;20107;-82
2023/07/26 09:12:07;;;;;;;4.25;2.20;;;27.80;93.90;;;;;;5057716;28;20285;-84
2023/07/26 09:14:34;;;;;;;4.00;2.57;;;27.90;94.80;;;;;;5048819;28;20060;-83
2023/07/26 09:17:04;;;;;;;4.15;2.33;;;28.00;94.60;;;;;;5052401;28;20032;-84
2023/07/26 09:19:34;;;;;;;2.90;2.20;;;28.10;94.20;;;;;;5049492;28;20037;-84
2023/07/26 09:22:03;;;;;;;2.60;2.10;;;28.30;96.10;;;;;;5056353;28;20068;-85
2023/07/26 09:24:49;;;;;;;3.10;2.00;;;28.70;96.40;;;;;;5059219;28;20020;-84
2023/07/26 09:27:15;;;;;;;2.60;2.10;;;29.10;92.70;;;;;;5042430;28;20563;-83
2023/07/26 09:29:52;;;;;;;3.05;2.15;;;29.50;96.90;;;;;;5049502;28;20029;-83
2023/07/26 09:32:26;;;;;;;3.28;1.90;;;29.80;95.30;;;;;;5053047;28;20020;-84
2023/07/26 09:34:52;;;;;;;4.50;2.17;;;30.00;91.60;;;;;;5042321;28;20499;-85
2023/07/26 09:37:21;;;;;;;2.30;2.00;;;30.20;94.70;;;;;;5055423;28;20087;-84
2023/07/26 09:39:47;;;;;;;3.65;2.00;;;30.40;93.20;;;;;;5031629;28;20032;-83
2023/07/26 09:42:13;;;;;;;2.65;1.70;;;30.50;93.80;;;;;;5042652;28;20410;-84
2023/07/26 09:44:38;;;;;;;2.53;1.67;;;30.70;93.40;;;;;;5051565;28;20055;-83
2023/07/26 09:47:05;;;;;;;3.40;2.10;;;30.70;93.40;;;;;;5053761;28;20228;-85
2023/07/26 09:49:31;;;;;;;2.75;2.03;;;30.90;93.00;;;;;;5048763;28;20032;-83
2023/07/26 09:51:59;;;;;;;3.10;2.30;;;31.00;92.30;;;;;;5046990;28;20124;-83
2023/07/26 09:54:30;;;;;;;2.83;2.20;;;31.00;90.80;;;;;;5063123;28;20024;-84
2023/07/26 09:56:57;;;;;;;3.10;2.20;;;31.00;90.20;;;;;;5035536;28;20031;-83
2023/07/26 09:59:29;;;;;;;2.85;2.38;;;31.10;91.80;;;;;;5027470;28;20547;-85
2023/07/26 10:01:58;;;;;;;2.50;2.03;;;31.20;91.30;;;;;;5055094;28;20388;-86
2023/07/26 10:04:39;;;;;;;2.63;2.17;;;31.30;91.60;;;;;;5052296;28;20027;-82
2023/07/26 10:07:10;;;;;;;2.53;2.10;;;31.50;87.50;;;;;;5032813;28;20396;-83
2023/07/26 10:09:43;;;;;;;2.63;1.90;;;31.60;91.10;;;;;;5026858;28;20121;-86
2023/07/26 10:12:10;;;;;;;2.85;1.98;;;31.60;88.40;;;;;;5035368;28;20118;-86
2023/07/26 10:14:36;;;;;;;3.47;1.92;;;31.60;90.60;;;;;;5041161;28;20279;-83
2023/07/26 10:17:04;;;;;;;3.47;2.10;;;31.60;89.20;;;;;;5041582;28;20415;-84
2023/07/26 10:19:31;;;;;;;3.42;2.10;;;31.40;87.30;;;;;;5048466;28;20048;-84
2023/07/26 10:21:57;;;;;;;2.17;1.63;;;31.30;87.40;;;;;;5018819;28;20038;-83
2023/07/26 10:24:24;;;;;;;2.83;2.15;;;31.00;88.30;;;;;;5034715;28;20021;-84
2023/07/26 10:26:53;;;;;;;2.90;1.85;;;31.00;89.50;;;;;;5031615;28;20325;-84
2023/07/26 10:29:19;;;;;;;2.50;1.80;;;31.00;88.80;;;;;;5037949;28;20149;-85
2023/07/26 10:31:46;;;;;;;2.83;1.92;;;31.00;90.40;;;;;;5045775;28;20068;-84
2023/07/26 10:34:20;;;;;;;3.67;2.42;;;31.00;90.00;;;;;;5052044;28;20051;-84
2023/07/26 10:36:46;;;;;;;2.78;1.90;;;31.00;85.40;;;;;;5046055;28;20579;-83
2023/07/26 10:39:14;;;;;;;3.17;2.00;;;31.00;90.10;;;;;;5039569;28;20025;-83
2023/07/26 10:41:50;;;;;;;2.93;2.00;;;31.10;90.40;;;;;;5047231;28;20277;-84
2023/07/26 10:44:16;;;;;;;2.95;2.13;;;31.20;85.80;;;;;;5044772;28;20623;-83
2023/07/26 10:46:54;;;;;;;2.67;2.00;;;31.40;91.20;;;;;;5043749;28;20024;-85
2023/07/26 10:49:26;;;;;;;2.78;2.22;;;31.60;86.60;;;;;;5051553;28;20071;-86
2023/07/26 10:52:03;;;;;;;2.30;1.93;;;31.80;88.00;;;;;;5043021;28;20037;-84
2023/07/26 10:54:39;;;;;;;2.58;2.30;;;32.00;90.40;;;;;;5029635;28;20117;-82
2023/07/26 10:57:19;;;;;;;2.95;1.85;;;32.20;85.90;;;;;;5003057;28;22682;-85
2023/07/26 10:59:58;;;;;;;3.20;2.20;;;32.40;83.90;;;;;;5053547;28;20025;-82
2023/07/26 11:02:35;;;;;;;2.33;2.10;;;32.60;82.60;;;;;;5022672;28;20040;-84
2023/07/26 11:05:02;;;;;;;2.40;1.90;;;32.70;87.00;;;;;;5053419;28;20105;-84
2023/07/26 11:07:48;;;;;;;3.00;1.95;;;32.90;88.80;;;;;;5030842;28;23011;-83
2023/07/26 11:10:37;;;;;;;3.00;1.90;;;32.90;77.10;;;;;;5044318;28;20431;-83
2023/07/26 11:13:07;;;;;;;2.60;2.10;;;32.70;76.40;;;;;;5027453;28;20632;-84
2023/07/26 11:15:35;;;;;;;2.40;1.83;;;32.40;75.50;;;;;;5042179;28;20583;-85
2023/07/26 11:18:01;;;;;;;2.23;1.70;;;31.90;77.80;;;;;;5046428;28;20031;-84
2023/07/26 11:20:27;;;;;;;3.53;2.08;;;31.40;77.90;;;;;;5056259;28;20037;-83
2023/07/26 11:22:53;;;;;;;2.63;1.80;;;31.00;78.10;;;;;;5035147;28;20036;-84
2023/07/26 11:25:20;;;;;;;3.10;1.90;;;30.60;80.90;;;;;;5026030;28;20197;-86
2023/07/26 11:27:49;;;;;;;2.35;1.80;;;30.60;83.60;;;;;;5052867;28;20508;-83
2023/07/26 11:30:19;;;;;;;2.73;1.60;;;30.70;85.40;;;;;;5018774;28;20025;-84
2023/07/26 11:32:47;;;;;;;2.15;1.92;;;30.90;82.90;;;;;;5056440;28;20100;-83
2023/07/26 11:35:16;;;;;;;2.92;1.92;;;31.00;83.20;;;;;;5043020;28;20029;-84
2023/07/26 11:37:55;;;;;;;2.55;1.95;;;31.00;81.80;;;;;;5045359;28;20039;-84
2023/07/26 11:40:22;;;;;;;2.38;1.67;;;30.90;76.20;;;;;;5033613;28;20036;-84
2023/07/26 11:42:49;;;;;;;2.60;2.00;;;30.80;78.90;;;;;;5046639;28;20642;-82
2023/07/26 11:45:15;;;;;;;2.47;1.77;;;30.50;77.50;;;;;;5035854;28;20028;-85
2023/07/26 11:47:41;;;;;;;2.58;1.80;;;30.30;78.60;;;;;;5053776;28;20119;-82
2023/07/26 11:50:07;;;;;;;3.15;1.92;;;30.30;80.20;;;;;;5043897;28;20098;-83
2023/07/26 11:52:34;;;;;;;2.78;2.03;;;30.30;81.50;;;;;;5042990;28;20020;-85
2023/07/26 11:55:02;;;;;;;2.73;2.07;;;30.40;82.20;;;;;;5022267;28;20021;-83
2023/07/26 11:57:29;;;;;;;2.33;1.83;;;30.60;83.60;;;;;;5043928;28;20051;-83
2023/07/26 11:59:56;;;;;;;2.28;2.00;;;30.80;84.80;;;;;;5018389;28;20033;-83
2023/07/26 12:02:23;;;;;;;2.90;2.22;;;31.20;86.40;;;;;;5055019;28;20021;-83
2023/07/26 12:05:21;;;;;;;2.63;1.83;;;31.60;83.80;;;;;;5033582;28;20539;-85
2023/07/26 12:07:52;;;;;;;2.70;1.90;;;31.80;76.00;;;;;;5043068;28;20036;-83
2023/07/26 12:10:32;;;;;;;4.35;2.00;;;31.80;77.20;;;;;;5030695;28;20512;-80
2023/07/26 12:12:59;;;;;;;3.03;1.90;;;31.80;75.10;;;;;;5036243;28;20035;-83
2023/07/26 12:15:26;;;;;;;2.85;1.88;;;31.50;75.50;;;;;;5058076;28;20119;-82
2023/07/26 12:18:03;;;;;;;2.58;1.98;;;31.20;74.90;;;;;;5059403;28;20507;-82
2023/07/26 12:20:30;;;;;;;2.13;1.60;;;31.00;71.70;;;;;;5041817;28;20672;-83
2023/07/26 12:23:00;;;;;;;2.55;1.55;;;30.80;75.40;;;;;;5054518;28;20115;-83
2023/07/26 12:25:37;;;;;;;2.20;1.73;;;30.60;75.90;;;;;;5031634;28;20842;-84
2023/07/26 12:28:07;;;;;;;2.15;1.77;;;30.50;71.80;;;;;;5047918;28;20491;-81
2023/07/26 12:30:34;;;;;;;3.03;1.70;;;30.50;74.70;;;;;;5033244;28;20656;-81
2023/07/26 12:33:12;;;;;;;2.90;2.00;;;30.50;78.50;;;;;;5036862;28;20072;-84
2023/07/26 12:35:38;;;;;;;2.28;1.95;;;30.60;73.30;;;;;;5025642;28;20054;-86
2023/07/26 12:38:17;;;;;;;2.95;1.65;;;30.70;78.50;;;;;;5046891;28;20107;-83
2023/07/26 12:40:44;;;;;;;2.42;1.70;;;30.70;70.10;;;;;;5064561;28;20349;-83
2023/07/26 12:43:31;;;;;;;2.75;1.90;;;30.60;74.70;;;;;;5052297;28;20035;-83
2023/07/26 12:46:00;;;;;;;2.67;1.90;;;30.40;70.10;;;;;;5053487;28;20012;-83
2023/07/26 12:48:28;;;;;;;2.00;1.67;;;30.20;73.70;;;;;;5061574;28;20086;-84
2023/07/26 12:50:55;;;;;;;2.80;1.80;;;30.00;72.70;;;;;;5057673;28;20025;-82